Terminal Aerodrome Forecast
Issued by NWS

Home | Current Version | Previous Version | Text Only | Print | Product List | Glossary On
Versions: 1 2 3 4 5 6 7 8 9 10 11 12
000
FTUS45 KABQ 031138
TAFSAF
TAF
KSAF 031138Z 0312/0412 36007KT P6SM BKN100
     FM031800 24010KT P6SM SCT060 BKN100
     FM032100 24011G18KT P6SM VCSH SCT060 BKN100
     FM040000 24015G25KT P6SM VCTS BKN060CB
     FM040200 31006KT P6SM VCSH BKN100
     FM040800 36007KT P6SM BKN100=

USA.gov is the U.S. government's official web portal to all federal, state and local government web resources and services.